createdAt,value
2022-09-18T00:01:37.759Z,74.03
2022-09-18T00:04:09.002Z,73.95
2022-09-18T00:06:39.747Z,74.07
2022-09-18T00:09:10.453Z,73.85
2022-09-18T00:11:41.486Z,74.11
2022-09-18T00:14:11.637Z,74.07
2022-09-18T00:16:41.610Z,74.17
2022-09-18T00:19:10.259Z,74.16
2022-09-18T00:21:41.965Z,74.13
2022-09-18T00:24:09.804Z,74.30
2022-09-18T00:26:37.629Z,74.16
2022-09-18T00:29:06.622Z,74.25
2022-09-18T00:31:36.416Z,74.47
2022-09-18T00:34:08.640Z,74.42
2022-09-18T00:36:37.237Z,74.44
2022-09-18T00:39:08.936Z,74.19
2022-09-18T00:41:38.877Z,74.52
2022-09-18T00:44:32.036Z,74.37
2022-09-18T00:47:05.945Z,74.27
2022-09-18T00:49:36.385Z,74.35
2022-09-18T00:52:06.664Z,74.49
2022-09-18T00:54:37.144Z,74.53
2022-09-18T00:57:11.576Z,74.65
2022-09-18T00:59:42.980Z,74.48
2022-09-18T01:02:11.007Z,74.57
2022-09-18T01:04:40.562Z,74.70
2022-09-18T01:07:15.888Z,74.71
2022-09-18T01:09:50.631Z,74.55
2022-09-18T01:12:29.351Z,74.46
2022-09-18T01:15:06.215Z,74.46
2022-09-18T01:17:40.603Z,74.54
2022-09-18T01:20:37.290Z,74.57
2022-09-18T01:23:47.558Z,74.44
2022-09-18T01:26:36.931Z,74.88
2022-09-18T01:29:12.289Z,74.94
2022-09-18T01:31:45.978Z,74.70
2022-09-18T01:34:21.989Z,74.89
2022-09-18T01:36:55.138Z,74.77
2022-09-18T01:39:30.702Z,74.75
2022-09-18T01:42:00.609Z,75.02
2022-09-18T01:44:33.207Z,74.79
2022-09-18T01:47:09.599Z,75.07
2022-09-18T01:49:40.914Z,74.90
2022-09-18T01:52:12.637Z,74.86
2022-09-18T01:54:49.505Z,74.87
2022-09-18T01:57:23.889Z,74.94
2022-09-18T01:59:58.516Z,75.22
2022-09-18T02:02:32.575Z,75.13
2022-09-18T02:05:03.420Z,75.08
2022-09-18T02:07:39.600Z,75.03
2022-09-18T02:10:08.226Z,75.22
2022-09-18T02:12:42.108Z,75.14
2022-09-18T02:15:14.440Z,75.26
2022-09-18T02:17:57.951Z,75.18
2022-09-18T02:20:37.890Z,75.17
2022-09-18T02:23:08.009Z,75.23
2022-09-18T02:25:39.769Z,75.27
2022-09-18T02:28:11.607Z,75.14
2022-09-18T02:30:45.042Z,75.49
2022-09-18T02:33:27.314Z,75.19
2022-09-18T02:36:08.596Z,75.32
2022-09-18T02:38:42.858Z,75.24
2022-09-18T02:41:21.166Z,75.30
2022-09-18T02:44:19.883Z,75.40
2022-09-18T02:47:02.018Z,75.17
2022-09-18T02:49:41.126Z,75.44
2022-09-18T02:52:18.184Z,75.27
2022-09-18T02:54:53.933Z,75.34
2022-09-18T02:57:27.955Z,75.67
2022-09-18T02:59:59.944Z,75.39
2022-09-18T03:02:29.847Z,75.30
2022-09-18T03:04:57.984Z,75.43
2022-09-18T03:07:42.687Z,75.42
2022-09-18T03:10:13.520Z,75.44
2022-09-18T03:12:41.425Z,75.53
2022-09-18T03:15:10.998Z,75.48
2022-09-18T03:17:40.143Z,75.46
2022-09-18T03:20:08.860Z,75.50
2022-09-18T03:22:36.677Z,75.43
2022-09-18T03:25:04.967Z,75.50
2022-09-18T03:27:34.600Z,75.57
2022-09-18T03:30:03.084Z,75.66
2022-09-18T03:32:32.820Z,75.69
2022-09-18T03:35:02.736Z,75.63
2022-09-18T03:37:30.682Z,75.51
2022-09-18T03:40:00.172Z,75.52
2022-09-18T03:42:28.084Z,75.77
2022-09-18T03:44:57.405Z,75.75
2022-09-18T03:47:31.849Z,75.48
2022-09-18T03:50:03.769Z,75.83
2022-09-18T03:52:34.268Z,75.47
2022-09-18T03:55:12.683Z,75.63
2022-09-18T03:57:58.910Z,75.33
2022-09-18T04:00:45.256Z,75.76
2022-09-18T04:03:21.513Z,75.85
2022-09-18T04:06:16.868Z,75.80
2022-09-18T04:09:07.652Z,75.80
2022-09-18T04:11:43.463Z,75.99
2022-09-18T04:14:11.679Z,75.81
2022-09-18T04:16:40.111Z,75.76
2022-09-18T04:19:09.347Z,75.79
2022-09-18T04:21:40.255Z,75.69
2022-09-18T04:24:08.523Z,75.91
2022-09-18T04:26:37.629Z,75.58
2022-09-18T04:29:06.371Z,75.83
2022-09-18T04:31:36.267Z,76.12
2022-09-18T04:34:08.549Z,75.87
2022-09-18T04:36:39.426Z,75.99
2022-09-18T04:39:10.239Z,75.94
2022-09-18T04:41:38.336Z,75.84
2022-09-18T04:44:06.671Z,75.91
2022-09-18T04:46:35.369Z,75.96
2022-09-18T04:49:03.785Z,75.76
2022-09-18T04:51:31.529Z,76.07
2022-09-18T04:54:00.821Z,76.02
2022-09-18T04:56:30.046Z,76.16
2022-09-18T04:59:00.006Z,75.83
2022-09-18T05:01:28.366Z,76.17
2022-09-18T05:03:56.535Z,76.13
2022-09-18T05:06:32.224Z,76.31
2022-09-18T05:09:02.171Z,76.18
2022-09-18T05:11:31.401Z,76.28
2022-09-18T05:13:59.399Z,76.19
2022-09-18T05:16:30.928Z,76.11
2022-09-18T05:19:18.853Z,76.47
2022-09-18T05:21:50.133Z,76.23
2022-09-18T05:24:19.169Z,76.21
2022-09-18T05:26:48.530Z,76.06
2022-09-18T05:29:19.441Z,76.50
2022-09-18T05:31:48.206Z,76.35
2022-09-18T05:34:17.589Z,76.48
2022-09-18T05:36:46.977Z,76.49
2022-09-18T05:39:17.564Z,76.30
2022-09-18T05:41:49.778Z,76.29
2022-09-18T05:44:19.859Z,76.27
2022-09-18T05:46:48.620Z,76.43
2022-09-18T05:49:17.740Z,76.46
2022-09-18T05:51:46.419Z,76.43
2022-09-18T05:54:15.673Z,76.50
2022-09-18T05:56:48.746Z,76.49
2022-09-18T05:59:17.172Z,76.38
2022-09-18T06:01:49.780Z,76.53
2022-09-18T06:04:46.772Z,76.63
2022-09-18T06:07:16.591Z,76.73
2022-09-18T06:09:44.543Z,76.72
2022-09-18T06:12:13.537Z,76.48
2022-09-18T06:14:41.483Z,76.62
2022-09-18T06:17:10.606Z,76.85
2022-09-18T06:19:38.592Z,76.58
2022-09-18T06:22:06.420Z,76.61
2022-09-18T06:24:35.558Z,76.55
2022-09-18T06:27:12.243Z,76.67
2022-09-18T06:29:41.392Z,76.63
2022-09-18T06:32:13.227Z,76.96
2022-09-18T06:34:41.772Z,76.60
2022-09-18T06:37:13.338Z,77.09
2022-09-18T06:39:44.359Z,77.06
2022-09-18T06:42:37.268Z,76.57
2022-09-18T06:45:34.402Z,76.76
2022-09-18T06:48:04.706Z,77.12
2022-09-18T06:50:33.886Z,77.04
2022-09-18T06:53:02.996Z,76.83
2022-09-18T06:55:35.343Z,76.62
2022-09-18T06:58:05.256Z,76.51
2022-09-18T07:00:33.198Z,76.72
2022-09-18T07:03:05.168Z,76.79
2022-09-18T07:05:35.836Z,76.66
2022-09-18T07:08:03.921Z,76.95
2022-09-18T07:10:35.577Z,76.79
2022-09-18T07:13:03.670Z,77.11
2022-09-18T07:15:36.526Z,76.80
2022-09-18T07:18:09.187Z,76.87
2022-09-18T07:20:37.380Z,76.48
2022-09-18T07:23:05.269Z,76.91
2022-09-18T07:25:47.894Z,76.83
2022-09-18T07:28:16.620Z,76.97
2022-09-18T07:30:54.332Z,76.78
2022-09-18T07:33:23.616Z,76.79
2022-09-18T07:35:52.717Z,76.64
2022-09-18T07:38:23.536Z,76.52
2022-09-18T07:40:54.794Z,76.91
2022-09-18T07:43:30.263Z,76.78
2022-09-18T07:45:58.211Z,76.89
2022-09-18T07:48:27.777Z,76.88
2022-09-18T07:50:59.580Z,76.73
2022-09-18T07:53:29.366Z,77.04
2022-09-18T07:56:00.035Z,77.01
2022-09-18T07:58:27.932Z,76.64
2022-09-18T08:00:57.063Z,76.86
2022-09-18T08:03:27.298Z,76.66
2022-09-18T08:06:01.059Z,76.80
2022-09-18T08:08:30.084Z,76.70
2022-09-18T08:11:18.504Z,76.92
2022-09-18T08:13:58.717Z,77.09
2022-09-18T08:16:41.159Z,76.96
2022-09-18T08:19:20.408Z,76.81
2022-09-18T08:21:52.613Z,76.81
2022-09-18T08:24:22.933Z,77.25
2022-09-18T08:26:51.060Z,76.73
2022-09-18T08:29:19.886Z,77.11
2022-09-18T08:31:53.660Z,76.75
2022-09-18T08:34:24.080Z,76.74
2022-09-18T08:36:51.895Z,76.79
2022-09-18T08:39:23.527Z,77.12
2022-09-18T08:42:25.252Z,76.95
2022-09-18T08:45:01.242Z,77.14
2022-09-18T08:47:34.670Z,76.79
2022-09-18T08:50:16.287Z,77.20
2022-09-18T08:52:48.477Z,77.24
2022-09-18T08:55:40.961Z,77.13
2022-09-18T08:58:41.339Z,77.13
2022-09-18T09:01:16.448Z,77.04
2022-09-18T09:04:11.545Z,77.02
2022-09-18T09:06:58.739Z,77.21
2022-09-18T09:09:56.667Z,77.12
2022-09-18T09:12:35.874Z,77.03
2022-09-18T09:15:29.378Z,77.46
2022-09-18T09:18:15.631Z,77.29
2022-09-18T09:20:51.721Z,77.56
2022-09-18T09:23:43.451Z,77.68
2022-09-18T09:26:24.698Z,77.42
2022-09-18T09:29:01.687Z,77.14
2022-09-18T09:31:52.629Z,77.39
2022-09-18T09:34:54.167Z,77.60
2022-09-18T09:37:40.383Z,77.26
2022-09-18T09:40:19.887Z,77.40
2022-09-18T09:42:52.691Z,77.66
2022-09-18T09:45:25.052Z,77.82
2022-09-18T09:48:02.313Z,77.59
2022-09-18T09:50:39.232Z,77.82
2022-09-18T09:53:11.430Z,78.06
2022-09-18T09:55:50.941Z,77.99
2022-09-18T09:58:35.401Z,78.05
2022-09-18T10:01:15.192Z,78.05
2022-09-18T10:03:53.461Z,77.64
2022-09-18T10:06:36.791Z,77.90
2022-09-18T10:09:15.271Z,77.95
2022-09-18T10:11:57.035Z,77.66
2022-09-18T10:14:27.892Z,77.73
2022-09-18T10:16:58.496Z,78.05
2022-09-18T10:19:34.504Z,78.16
2022-09-18T10:22:06.586Z,78.19
2022-09-18T10:24:42.210Z,78.36
2022-09-18T10:27:14.448Z,78.26
2022-09-18T10:29:43.682Z,77.92
2022-09-18T10:32:33.598Z,78.03
2022-09-18T10:35:41.400Z,77.90
2022-09-18T10:38:29.482Z,78.14
2022-09-18T10:41:34.036Z,78.36
2022-09-18T10:44:19.838Z,78.12
2022-09-18T10:46:56.982Z,78.45
2022-09-18T10:49:31.953Z,78.15
2022-09-18T10:52:27.071Z,77.93
2022-09-18T10:55:10.063Z,78.51
2022-09-18T10:57:44.499Z,78.40
2022-09-18T11:00:48.197Z,78.24
2022-09-18T11:03:23.089Z,78.44
2022-09-18T11:05:58.014Z,78.59
2022-09-18T11:08:33.719Z,78.47
2022-09-18T11:11:06.743Z,78.41
2022-09-18T11:13:44.768Z,78.52
2022-09-18T11:16:24.414Z,78.80
2022-09-18T11:19:07.510Z,78.54
2022-09-18T11:21:46.618Z,78.40
2022-09-18T11:24:25.442Z,78.85
2022-09-18T11:30:15.448Z,79.01
2022-09-18T11:32:47.663Z,79.04
2022-09-18T11:35:19.568Z,78.69
2022-09-18T11:37:51.917Z,78.84
2022-09-18T11:40:24.293Z,78.56
2022-09-18T11:42:55.377Z,79.00
2022-09-18T11:45:36.005Z,78.70
2022-09-18T11:48:10.453Z,79.18
2022-09-18T11:50:40.226Z,79.08
2022-09-18T11:53:16.275Z,78.63
2022-09-18T11:55:50.789Z,78.83
2022-09-18T11:58:27.944Z,79.08
2022-09-18T12:01:11.704Z,78.98
2022-09-18T12:03:45.619Z,79.21
2022-09-18T12:06:19.918Z,79.24
2022-09-18T12:08:53.592Z,79.16
2022-09-18T12:11:35.851Z,79.30
2022-09-18T12:14:13.235Z,78.80
2022-09-18T12:16:52.439Z,79.29
2022-09-18T12:19:29.568Z,79.09
2022-09-18T12:22:08.329Z,79.04
2022-09-18T12:24:36.276Z,79.33
2022-09-18T12:27:19.569Z,79.42
2022-09-18T12:30:03.550Z,79.51
2022-09-18T12:33:00.765Z,79.09
2022-09-18T12:35:42.920Z,79.34
2022-09-18T12:38:27.204Z,79.14
2022-09-18T12:41:10.511Z,79.48
2022-09-18T12:43:53.373Z,79.30
2022-09-18T12:46:31.162Z,79.36
2022-09-18T12:49:20.619Z,79.12
2022-09-18T12:51:55.521Z,79.44
2022-09-18T12:54:50.351Z,79.65
2022-09-18T12:57:40.236Z,79.82
2022-09-18T13:00:13.876Z,79.65
2022-09-18T13:02:54.925Z,79.66
2022-09-18T13:05:29.453Z,79.53
2022-09-18T13:08:02.979Z,79.45
2022-09-18T13:10:37.980Z,79.56
2022-09-18T13:13:12.818Z,79.47
2022-09-18T13:15:48.305Z,79.53
2022-09-18T13:18:27.544Z,79.71
2022-09-18T13:20:58.606Z,79.83
2022-09-18T13:23:29.714Z,79.71
2022-09-18T13:26:00.178Z,80.01
2022-09-18T13:28:29.160Z,79.69
2022-09-18T13:31:24.730Z,79.84
2022-09-18T13:33:55.861Z,79.80
2022-09-18T13:36:26.235Z,80.02
2022-09-18T13:38:58.706Z,80.13
2022-09-18T13:41:28.602Z,79.90
2022-09-18T13:44:00.567Z,79.94
2022-09-18T13:46:39.699Z,79.85
2022-09-18T13:49:28.266Z,80.14
2022-09-18T13:51:56.757Z,79.99
2022-09-18T13:54:29.460Z,80.10
2022-09-18T13:57:23.067Z,79.95
2022-09-18T13:59:55.545Z,80.18
2022-09-18T14:02:30.979Z,80.25
2022-09-18T14:05:29.616Z,80.46
2022-09-18T14:08:13.953Z,80.22
2022-09-18T14:11:19.559Z,80.31
2022-09-18T14:13:54.246Z,80.26
2022-09-18T14:16:38.874Z,80.21
2022-09-18T14:19:26.710Z,80.10
2022-09-18T14:21:55.191Z,80.26
2022-09-18T14:24:38.869Z,80.30
2022-09-18T14:27:38.153Z,80.14
2022-09-18T14:30:15.796Z,80.19
2022-09-18T14:32:54.620Z,80.35
2022-09-18T14:35:38.261Z,80.05
2022-09-18T14:38:17.880Z,80.55
2022-09-18T14:40:54.520Z,80.49
2022-09-18T14:43:24.654Z,80.38
2022-09-18T14:45:53.158Z,80.38
2022-09-18T14:48:26.043Z,80.47
2022-09-18T14:51:06.952Z,80.40
2022-09-18T14:53:43.998Z,80.43
2022-09-18T14:56:15.356Z,80.45
2022-09-18T14:58:46.334Z,80.37
2022-09-18T15:01:18.159Z,80.39
2022-09-18T15:03:52.256Z,80.57
2022-09-18T15:06:24.010Z,80.33
2022-09-18T15:08:54.536Z,80.56
2022-09-18T15:11:25.384Z,80.37
2022-09-18T15:13:56.396Z,80.48
2022-09-18T15:16:30.791Z,80.51
2022-09-18T15:19:00.685Z,80.37
2022-09-18T15:21:33.541Z,80.41
2022-09-18T15:24:07.423Z,80.45
2022-09-18T15:26:40.042Z,80.65
2022-09-18T15:29:20.070Z,80.37
2022-09-18T15:31:48.082Z,80.66
2022-09-18T15:34:18.839Z,80.76
2022-09-18T15:36:56.869Z,80.71
2022-09-18T15:39:30.933Z,80.72
2022-09-18T15:42:16.357Z,80.58
2022-09-18T15:45:14.873Z,80.77
2022-09-18T15:47:43.266Z,80.64
2022-09-18T15:50:33.950Z,80.80
2022-09-18T15:53:32.092Z,80.83
2022-09-18T15:56:06.264Z,80.77
2022-09-18T15:58:38.781Z,80.80
2022-09-18T16:01:22.957Z,80.86
2022-09-18T16:04:07.911Z,80.89
2022-09-18T16:06:43.853Z,80.82
2022-09-18T16:09:24.388Z,80.83
2022-09-18T16:11:52.850Z,80.68
2022-09-18T16:14:45.804Z,80.84
2022-09-18T16:17:36.972Z,80.84
2022-09-18T16:20:29.927Z,80.80
2022-09-18T16:23:07.356Z,80.72
2022-09-18T16:25:37.816Z,81.06
2022-09-18T16:28:20.668Z,80.79
2022-09-18T16:30:48.448Z,80.76
2022-09-18T16:33:19.596Z,80.76
2022-09-18T16:35:48.794Z,80.84
2022-09-18T16:38:16.692Z,81.08
2022-09-18T16:40:47.165Z,80.97
2022-09-18T16:43:15.228Z,80.89
2022-09-18T16:45:43.447Z,80.93
2022-09-18T16:48:11.800Z,80.96
2022-09-18T16:50:39.932Z,80.96
2022-09-18T16:53:08.334Z,80.91
2022-09-18T16:55:38.276Z,81.00
2022-09-18T16:58:09.139Z,80.98
2022-09-18T17:00:37.671Z,80.84
2022-09-18T17:03:07.130Z,81.09
2022-09-18T17:05:35.672Z,80.88
2022-09-18T17:08:04.582Z,81.06
2022-09-18T17:10:32.883Z,81.01
2022-09-18T17:13:00.900Z,80.95
2022-09-18T17:15:30.165Z,80.89
2022-09-18T17:17:58.187Z,81.25
2022-09-18T17:20:26.215Z,81.17
2022-09-18T17:22:54.135Z,81.24
2022-09-18T17:25:21.932Z,81.06
2022-09-18T17:27:50.989Z,81.28
2022-09-18T17:30:18.863Z,81.27
2022-09-18T17:32:49.645Z,81.14
2022-09-18T17:35:18.181Z,81.30
2022-09-18T17:37:46.033Z,81.05
2022-09-18T17:40:14.063Z,81.50
2022-09-18T17:42:41.935Z,81.17
2022-09-18T17:45:10.448Z,81.03
2022-09-18T17:47:38.202Z,81.33
2022-09-18T17:50:08.535Z,81.12
2022-09-18T17:52:37.059Z,81.14
2022-09-18T17:55:05.234Z,81.08
2022-09-18T17:57:35.885Z,81.32
2022-09-18T18:00:04.662Z,81.13
2022-09-18T18:02:39.659Z,81.04
2022-09-18T18:05:09.331Z,81.18
2022-09-18T18:07:37.165Z,81.38
2022-09-18T18:10:05.357Z,81.14
2022-09-18T18:12:33.314Z,81.29
2022-09-18T18:15:01.124Z,81.31
2022-09-18T18:17:29.699Z,80.99
2022-09-18T18:19:57.499Z,81.33
2022-09-18T18:22:26.667Z,81.25
2022-09-18T18:24:54.517Z,81.07
2022-09-18T18:27:22.836Z,81.47
2022-09-18T18:29:53.758Z,81.19
2022-09-18T18:32:21.573Z,81.17
2022-09-18T18:34:50.211Z,81.43
2022-09-18T18:37:19.531Z,81.41
2022-09-18T18:39:49.007Z,81.32
2022-09-18T18:42:16.870Z,81.48
2022-09-18T18:44:45.319Z,81.19
2022-09-18T18:47:13.492Z,81.36
2022-09-18T18:49:41.353Z,81.46
2022-09-18T18:52:09.409Z,81.22
2022-09-18T18:54:37.209Z,81.43
2022-09-18T18:57:06.797Z,81.57
2022-09-18T18:59:34.528Z,81.31
2022-09-18T19:02:03.406Z,81.46
2022-09-18T19:04:32.212Z,81.34
2022-09-18T19:07:00.042Z,81.25
2022-09-18T19:09:29.469Z,81.31
2022-09-18T19:11:57.515Z,81.32
2022-09-18T19:14:33.351Z,81.49
2022-09-18T19:17:01.596Z,81.30
2022-09-18T19:19:29.516Z,81.41
2022-09-18T19:21:59.323Z,81.50
2022-09-18T19:24:29.183Z,81.34
2022-09-18T19:26:57.507Z,81.49
2022-09-18T19:29:27.343Z,81.55
2022-09-18T19:31:55.320Z,81.43
2022-09-18T19:34:23.849Z,81.46
2022-09-18T19:37:18.425Z,81.54
2022-09-18T19:39:48.896Z,81.60
2022-09-18T19:42:17.532Z,81.55
2022-09-18T19:44:49.630Z,81.60
2022-09-18T19:47:21.379Z,81.48
2022-09-18T19:49:50.921Z,81.58
2022-09-18T19:52:20.552Z,81.59
2022-09-18T19:54:49.712Z,81.61
2022-09-18T19:57:18.349Z,81.40
2022-09-18T19:59:47.749Z,81.61
2022-09-18T20:02:17.900Z,81.62
2022-09-18T20:04:45.835Z,81.63
2022-09-18T20:07:13.949Z,81.54
2022-09-18T20:09:41.871Z,81.71
2022-09-18T20:12:10.812Z,81.60
2022-09-18T20:14:38.815Z,81.75
2022-09-18T20:17:08.161Z,81.64
2022-09-18T20:19:36.324Z,81.89
2022-09-18T20:22:04.994Z,81.61
2022-09-18T20:24:33.872Z,81.66
2022-09-18T20:27:01.898Z,81.70
2022-09-18T20:29:30.460Z,81.40
2022-09-18T20:31:58.491Z,81.74
2022-09-18T20:34:28.622Z,81.73
2022-09-18T20:36:56.395Z,81.81
2022-09-18T20:39:24.261Z,81.75
2022-09-18T20:41:52.219Z,81.82
2022-09-18T20:44:21.887Z,81.85
2022-09-18T20:46:50.431Z,82.15
2022-09-18T20:49:18.370Z,81.74
2022-09-18T20:51:47.479Z,81.81
2022-09-18T20:54:41.769Z,81.86
2022-09-18T20:57:13.469Z,82.41
2022-09-18T20:59:41.517Z,81.83
2022-09-18T21:02:09.736Z,81.73
2022-09-18T21:04:38.517Z,82.00
2022-09-18T21:07:07.804Z,81.84
2022-09-18T21:09:35.742Z,81.91
2022-09-18T21:12:03.623Z,81.99
2022-09-18T21:14:31.515Z,81.95
2022-09-18T21:16:59.300Z,81.87
2022-09-18T21:19:28.114Z,82.00
2022-09-18T21:21:56.063Z,81.90
2022-09-18T21:24:25.974Z,82.02
2022-09-18T21:26:54.036Z,81.98
2022-09-18T21:29:23.646Z,81.82
2022-09-18T21:31:53.195Z,81.98
2022-09-18T21:34:24.596Z,81.91
2022-09-18T21:36:55.058Z,81.92
2022-09-18T21:39:23.202Z,81.92
2022-09-18T21:41:53.276Z,82.22
2022-09-18T21:44:24.681Z,81.92
2022-09-18T21:46:52.618Z,82.04
2022-09-18T21:49:21.596Z,82.07
2022-09-18T21:51:50.320Z,81.87
2022-09-18T21:54:20.707Z,81.91
2022-09-18T21:56:51.711Z,81.91
2022-09-18T21:59:22.804Z,82.05
2022-09-18T22:01:52.889Z,82.19
2022-09-18T22:06:40.462Z,82.05
2022-09-18T22:09:10.861Z,82.09
2022-09-18T22:11:38.769Z,81.93
2022-09-18T22:14:08.551Z,82.08
2022-09-18T22:16:37.432Z,82.27
2022-09-18T22:19:06.156Z,81.99
2022-09-18T22:21:37.848Z,82.07
2022-09-18T22:24:08.637Z,81.96
2022-09-18T22:26:38.696Z,82.04
2022-09-18T22:29:08.288Z,82.00
2022-09-18T22:31:39.104Z,82.03
2022-09-18T22:34:07.169Z,82.07
2022-09-18T22:36:36.467Z,82.09
2022-09-18T22:39:04.483Z,82.30
2022-09-18T22:41:32.226Z,81.84
2022-09-18T22:44:00.139Z,82.29
2022-09-18T22:46:28.010Z,82.07
2022-09-18T22:48:55.845Z,82.09
2022-09-18T22:51:27.152Z,82.03
2022-09-18T22:53:59.008Z,82.11
2022-09-18T22:56:28.788Z,82.46
2022-09-18T22:58:57.999Z,82.14
2022-09-18T23:01:32.777Z,82.29
2022-09-18T23:04:03.586Z,82.17
2022-09-18T23:06:33.702Z,82.30
2022-09-18T23:09:04.561Z,82.15
2022-09-18T23:11:34.603Z,82.27
2022-09-18T23:14:04.182Z,82.44
2022-09-18T23:16:34.782Z,82.21
2022-09-18T23:19:05.933Z,82.20
2022-09-18T23:21:39.213Z,82.43
2022-09-18T23:24:10.809Z,82.27
2022-09-18T23:26:40.886Z,82.36
2022-09-18T23:29:10.313Z,82.49
2022-09-18T23:31:43.780Z,82.43
2022-09-18T23:34:13.862Z,82.49
2022-09-18T23:36:43.338Z,82.63
2022-09-18T23:39:15.024Z,82.37
2022-09-18T23:41:43.592Z,82.40
2022-09-18T23:44:13.201Z,82.52
2022-09-18T23:46:41.581Z,82.56
2022-09-18T23:49:10.275Z,82.57
2022-09-18T23:51:40.409Z,82.54
2022-09-18T23:54:09.454Z,82.49
2022-09-18T23:56:38.684Z,82.40
2022-09-18T23:59:07.823Z,82.82
